sensor_id;sensor_type;location;lat;lon;timestamp;temperature;humidity
69084;SHT31;56185;48.526;9.044;2024-02-28T00:01:54;7.34;80.19
69084;SHT31;56185;48.526;9.044;2024-02-28T00:04:20;7.28;80.45
69084;SHT31;56185;48.526;9.044;2024-02-28T00:06:45;7.27;80.66
69084;SHT31;56185;48.526;9.044;2024-02-28T00:09:11;7.28;80.68
69084;SHT31;56185;48.526;9.044;2024-02-28T00:11:36;7.26;80.56
69084;SHT31;56185;48.526;9.044;2024-02-28T00:14:01;7.17;80.65
69084;SHT31;56185;48.526;9.044;2024-02-28T00:16:29;7.24;80.75
69084;SHT31;56185;48.526;9.044;2024-02-28T00:18:54;7.17;81.07
69084;SHT31;56185;48.526;9.044;2024-02-28T00:21:20;7.22;81.21
69084;SHT31;56185;48.526;9.044;2024-02-28T00:23:45;7.20;81.21
69084;SHT31;56185;48.526;9.044;2024-02-28T00:26:12;7.27;81.19
69084;SHT31;56185;48.526;9.044;2024-02-28T00:28:37;7.20;81.44
69084;SHT31;56185;48.526;9.044;2024-02-28T00:31:02;7.26;81.50
69084;SHT31;56185;48.526;9.044;2024-02-28T00:33:28;7.17;81.71
69084;SHT31;56185;48.526;9.044;2024-02-28T00:35:53;7.26;81.17
69084;SHT31;56185;48.526;9.044;2024-02-28T00:38:18;7.37;80.65
69084;SHT31;56185;48.526;9.044;2024-02-28T00:40:43;7.37;80.58
69084;SHT31;56185;48.526;9.044;2024-02-28T00:43:09;7.38;80.92
69084;SHT31;56185;48.526;9.044;2024-02-28T00:45:34;7.41;81.20
69084;SHT31;56185;48.526;9.044;2024-02-28T00:48:02;7.44;81.05
69084;SHT31;56185;48.526;9.044;2024-02-28T00:50:28;7.43;81.10
69084;SHT31;56185;48.526;9.044;2024-02-28T00:52:53;7.47;81.01
69084;SHT31;56185;48.526;9.044;2024-02-28T00:55:18;7.44;80.88
69084;SHT31;56185;48.526;9.044;2024-02-28T00:57:44;7.48;80.62
69084;SHT31;56185;48.526;9.044;2024-02-28T01:00:09;7.51;80.36
69084;SHT31;56185;48.526;9.044;2024-02-28T01:02:35;7.54;80.22
69084;SHT31;56185;48.526;9.044;2024-02-28T01:05:00;7.53;80.01
69084;SHT31;56185;48.526;9.044;2024-02-28T01:07:25;7.53;79.95
69084;SHT31;56185;48.526;9.044;2024-02-28T01:09:50;7.61;79.30
69084;SHT31;56185;48.526;9.044;2024-02-28T01:12:16;7.54;79.69
69084;SHT31;56185;48.526;9.044;2024-02-28T01:14:41;7.57;79.25
69084;SHT31;56185;48.526;9.044;2024-02-28T01:17:06;7.47;79.81
69084;SHT31;56185;48.526;9.044;2024-02-28T01:19:31;7.51;79.82
69084;SHT31;56185;48.526;9.044;2024-02-28T01:21:58;7.47;79.20
69084;SHT31;56185;48.526;9.044;2024-02-28T01:24:23;7.47;79.14
69084;SHT31;56185;48.526;9.044;2024-02-28T01:26:48;7.48;79.34
69084;SHT31;56185;48.526;9.044;2024-02-28T01:29:14;7.47;79.35
69084;SHT31;56185;48.526;9.044;2024-02-28T01:31:39;7.46;79.38
69084;SHT31;56185;48.526;9.044;2024-02-28T01:34:04;7.46;79.33
69084;SHT31;56185;48.526;9.044;2024-02-28T01:36:29;7.51;79.41
69084;SHT31;56185;48.526;9.044;2024-02-28T01:38:55;7.50;79.41
69084;SHT31;56185;48.526;9.044;2024-02-28T01:41:20;7.47;79.20
69084;SHT31;56185;48.526;9.044;2024-02-28T01:43:45;7.47;79.45
69084;SHT31;56185;48.526;9.044;2024-02-28T01:46:26;7.54;78.50
69084;SHT31;56185;48.526;9.044;2024-02-28T01:48:55;7.54;77.99
69084;SHT31;56185;48.526;9.044;2024-02-28T01:51:25;7.46;78.46
69084;SHT31;56185;48.526;9.044;2024-02-28T01:53:52;7.44;78.70
69084;SHT31;56185;48.526;9.044;2024-02-28T01:56:19;7.46;78.72
69084;SHT31;56185;48.526;9.044;2024-02-28T01:58:46;7.43;78.92
69084;SHT31;56185;48.526;9.044;2024-02-28T02:01:13;7.43;78.92
69084;SHT31;56185;48.526;9.044;2024-02-28T02:03:39;7.46;79.08
69084;SHT31;56185;48.526;9.044;2024-02-28T02:06:05;7.43;79.07
69084;SHT31;56185;48.526;9.044;2024-02-28T02:08:30;7.38;79.38
69084;SHT31;56185;48.526;9.044;2024-02-28T02:10:56;7.44;79.32
69084;SHT31;56185;48.526;9.044;2024-02-28T02:13:21;7.44;79.25
69084;SHT31;56185;48.526;9.044;2024-02-28T02:15:46;7.43;79.32
69084;SHT31;56185;48.526;9.044;2024-02-28T02:18:11;7.44;79.26
69084;SHT31;56185;48.526;9.044;2024-02-28T02:20:42;7.53;78.88
69084;SHT31;56185;48.526;9.044;2024-02-28T02:23:08;7.44;78.66
69084;SHT31;56185;48.526;9.044;2024-02-28T02:25:33;7.47;78.11
69084;SHT31;56185;48.526;9.044;2024-02-28T02:27:58;7.43;78.62
69084;SHT31;56185;48.526;9.044;2024-02-28T02:30:24;7.46;78.30
69084;SHT31;56185;48.526;9.044;2024-02-28T02:32:49;7.47;76.95
69084;SHT31;56185;48.526;9.044;2024-02-28T02:35:14;7.50;77.56
69084;SHT31;56185;48.526;9.044;2024-02-28T02:37:43;7.46;78.17
69084;SHT31;56185;48.526;9.044;2024-02-28T02:40:09;7.44;78.47
69084;SHT31;56185;48.526;9.044;2024-02-28T02:42:34;7.43;78.39
69084;SHT31;56185;48.526;9.044;2024-02-28T02:45:00;7.50;78.35
69084;SHT31;56185;48.526;9.044;2024-02-28T02:47:25;7.44;78.23
69084;SHT31;56185;48.526;9.044;2024-02-28T02:49:50;7.43;77.77
69084;SHT31;56185;48.526;9.044;2024-02-28T02:52:15;7.51;77.70
69084;SHT31;56185;48.526;9.044;2024-02-28T02:54:41;7.50;77.53
69084;SHT31;56185;48.526;9.044;2024-02-28T02:57:06;7.48;77.11
69084;SHT31;56185;48.526;9.044;2024-02-28T02:59:31;7.54;76.70
69084;SHT31;56185;48.526;9.044;2024-02-28T03:01:56;7.53;77.43
69084;SHT31;56185;48.526;9.044;2024-02-28T03:04:22;7.57;76.38
69084;SHT31;56185;48.526;9.044;2024-02-28T03:06:47;7.53;76.24
69084;SHT31;56185;48.526;9.044;2024-02-28T03:09:12;7.58;76.45
69084;SHT31;56185;48.526;9.044;2024-02-28T03:11:37;7.48;76.52
69084;SHT31;56185;48.526;9.044;2024-02-28T03:14:03;7.51;76.77
69084;SHT31;56185;48.526;9.044;2024-02-28T03:16:28;7.50;77.03
69084;SHT31;56185;48.526;9.044;2024-02-28T03:18:53;7.44;76.93
69084;SHT31;56185;48.526;9.044;2024-02-28T03:21:19;7.44;76.91
69084;SHT31;56185;48.526;9.044;2024-02-28T03:23:44;7.50;76.84
69084;SHT31;56185;48.526;9.044;2024-02-28T03:26:09;7.55;77.31
69084;SHT31;56185;48.526;9.044;2024-02-28T03:28:34;7.57;76.89
69084;SHT31;56185;48.526;9.044;2024-02-28T03:30:59;7.51;77.05
69084;SHT31;56185;48.526;9.044;2024-02-28T03:33:25;7.37;77.27
69084;SHT31;56185;48.526;9.044;2024-02-28T03:35:50;7.47;77.36
69084;SHT31;56185;48.526;9.044;2024-02-28T03:38:15;7.53;77.25
69084;SHT31;56185;48.526;9.044;2024-02-28T03:40:41;7.51;77.42
69084;SHT31;56185;48.526;9.044;2024-02-28T03:43:06;7.54;77.17
69084;SHT31;56185;48.526;9.044;2024-02-28T03:45:37;7.58;76.96
69084;SHT31;56185;48.526;9.044;2024-02-28T03:48:02;7.55;77.05
69084;SHT31;56185;48.526;9.044;2024-02-28T03:50:27;7.60;76.78
69084;SHT31;56185;48.526;9.044;2024-02-28T03:52:53;7.44;77.33
69084;SHT31;56185;48.526;9.044;2024-02-28T03:55:18;7.43;77.51
69084;SHT31;56185;48.526;9.044;2024-02-28T03:57:47;7.43;77.58
69084;SHT31;56185;48.526;9.044;2024-02-28T04:00:12;7.47;77.67
69084;SHT31;56185;48.526;9.044;2024-02-28T04:02:38;7.26;77.91
69084;SHT31;56185;48.526;9.044;2024-02-28T04:05:03;7.31;78.19
69084;SHT31;56185;48.526;9.044;2024-02-28T04:07:29;7.28;78.26
69084;SHT31;56185;48.526;9.044;2024-02-28T04:09:54;7.30;78.19
69084;SHT31;56185;48.526;9.044;2024-02-28T04:12:19;7.26;78.30
69084;SHT31;56185;48.526;9.044;2024-02-28T04:14:45;7.27;78.46
69084;SHT31;56185;48.526;9.044;2024-02-28T04:17:10;7.04;79.02
69084;SHT31;56185;48.526;9.044;2024-02-28T04:19:35;7.28;78.40
69084;SHT31;56185;48.526;9.044;2024-02-28T04:22:00;7.38;78.10
69084;SHT31;56185;48.526;9.044;2024-02-28T04:24:25;7.38;77.98
69084;SHT31;56185;48.526;9.044;2024-02-28T04:26:51;7.34;78.18
69084;SHT31;56185;48.526;9.044;2024-02-28T04:29:16;7.33;78.29
69084;SHT31;56185;48.526;9.044;2024-02-28T04:31:41;7.40;78.04
69084;SHT31;56185;48.526;9.044;2024-02-28T04:34:06;7.34;78.14
69084;SHT31;56185;48.526;9.044;2024-02-28T04:36:31;7.28;78.38
69084;SHT31;56185;48.526;9.044;2024-02-28T04:38:57;7.10;78.38
69084;SHT31;56185;48.526;9.044;2024-02-28T04:41:22;7.28;77.99
69084;SHT31;56185;48.526;9.044;2024-02-28T04:43:47;7.31;78.17
69084;SHT31;56185;48.526;9.044;2024-02-28T04:46:12;7.38;77.84
69084;SHT31;56185;48.526;9.044;2024-02-28T04:48:38;7.31;78.01
69084;SHT31;56185;48.526;9.044;2024-02-28T04:51:03;7.40;77.79
69084;SHT31;56185;48.526;9.044;2024-02-28T04:53:28;7.38;77.08
69084;SHT31;56185;48.526;9.044;2024-02-28T04:55:54;7.19;78.13
69084;SHT31;56185;48.526;9.044;2024-02-28T04:58:19;7.28;77.46
69084;SHT31;56185;48.526;9.044;2024-02-28T05:00:44;7.38;77.25
69084;SHT31;56185;48.526;9.044;2024-02-28T05:03:09;7.30;77.51
69084;SHT31;56185;48.526;9.044;2024-02-28T05:05:34;7.27;77.79
69084;SHT31;56185;48.526;9.044;2024-02-28T05:08:00;7.37;77.71
69084;SHT31;56185;48.526;9.044;2024-02-28T05:10:25;7.26;77.77
69084;SHT31;56185;48.526;9.044;2024-02-28T05:12:50;7.38;77.88
69084;SHT31;56185;48.526;9.044;2024-02-28T05:15:15;7.30;77.96
69084;SHT31;56185;48.526;9.044;2024-02-28T05:17:41;7.33;77.88
69084;SHT31;56185;48.526;9.044;2024-02-28T05:20:06;7.37;77.42
69084;SHT31;56185;48.526;9.044;2024-02-28T05:22:32;7.34;77.66
69084;SHT31;56185;48.526;9.044;2024-02-28T05:24:57;7.43;77.59
69084;SHT31;56185;48.526;9.044;2024-02-28T05:27:22;7.17;78.18
69084;SHT31;56185;48.526;9.044;2024-02-28T05:29:48;7.28;77.81
69084;SHT31;56185;48.526;9.044;2024-02-28T05:32:13;7.38;77.67
69084;SHT31;56185;48.526;9.044;2024-02-28T05:34:38;7.28;78.07
69084;SHT31;56185;48.526;9.044;2024-02-28T05:37:03;7.12;78.72
69084;SHT31;56185;48.526;9.044;2024-02-28T05:39:29;7.17;78.33
69084;SHT31;56185;48.526;9.044;2024-02-28T05:41:54;7.34;77.86
69084;SHT31;56185;48.526;9.044;2024-02-28T05:44:19;7.27;78.03
69084;SHT31;56185;48.526;9.044;2024-02-28T05:46:44;7.38;77.76
69084;SHT31;56185;48.526;9.044;2024-02-28T05:49:10;7.28;78.28
69084;SHT31;56185;48.526;9.044;2024-02-28T05:51:35;7.34;77.85
69084;SHT31;56185;48.526;9.044;2024-02-28T05:54:00;7.30;77.82
69084;SHT31;56185;48.526;9.044;2024-02-28T05:56:25;7.37;77.38
69084;SHT31;56185;48.526;9.044;2024-02-28T05:58:51;7.30;77.75
69084;SHT31;56185;48.526;9.044;2024-02-28T06:01:17;7.34;78.12
69084;SHT31;56185;48.526;9.044;2024-02-28T06:03:42;7.30;78.41
69084;SHT31;56185;48.526;9.044;2024-02-28T06:06:07;7.31;77.81
69084;SHT31;56185;48.526;9.044;2024-02-28T06:08:34;7.31;77.90
69084;SHT31;56185;48.526;9.044;2024-02-28T06:10:59;7.28;77.90
69084;SHT31;56185;48.526;9.044;2024-02-28T06:13:24;7.37;77.47
69084;SHT31;56185;48.526;9.044;2024-02-28T06:15:50;7.30;77.59
69084;SHT31;56185;48.526;9.044;2024-02-28T06:18:15;7.28;77.38
69084;SHT31;56185;48.526;9.044;2024-02-28T06:20:40;7.34;77.15
69084;SHT31;56185;48.526;9.044;2024-02-28T06:23:05;7.31;77.50
69084;SHT31;56185;48.526;9.044;2024-02-28T06:25:30;7.34;77.14
69084;SHT31;56185;48.526;9.044;2024-02-28T06:27:56;7.27;77.48
69084;SHT31;56185;48.526;9.044;2024-02-28T06:30:21;7.27;77.65
69084;SHT31;56185;48.526;9.044;2024-02-28T06:32:46;7.35;77.11
69084;SHT31;56185;48.526;9.044;2024-02-28T06:35:11;7.19;77.47
69084;SHT31;56185;48.526;9.044;2024-02-28T06:37:37;7.22;77.24
69084;SHT31;56185;48.526;9.044;2024-02-28T06:40:03;7.24;77.81
69084;SHT31;56185;48.526;9.044;2024-02-28T06:42:29;7.23;77.71
69084;SHT31;56185;48.526;9.044;2024-02-28T06:44:54;7.23;77.40
69084;SHT31;56185;48.526;9.044;2024-02-28T06:47:20;7.22;78.17
69084;SHT31;56185;48.526;9.044;2024-02-28T06:49:46;7.24;77.79
69084;SHT31;56185;48.526;9.044;2024-02-28T06:52:11;7.30;77.71
69084;SHT31;56185;48.526;9.044;2024-02-28T06:54:37;7.33;77.30
69084;SHT31;56185;48.526;9.044;2024-02-28T06:57:02;7.27;77.47
69084;SHT31;56185;48.526;9.044;2024-02-28T06:59:27;7.34;77.13
69084;SHT31;56185;48.526;9.044;2024-02-28T07:01:53;7.23;77.63
69084;SHT31;56185;48.526;9.044;2024-02-28T07:04:18;7.19;77.01
69084;SHT31;56185;48.526;9.044;2024-02-28T07:06:43;7.20;77.35
69084;SHT31;56185;48.526;9.044;2024-02-28T07:09:08;7.16;77.47
69084;SHT31;56185;48.526;9.044;2024-02-28T07:11:34;7.19;77.37
69084;SHT31;56185;48.526;9.044;2024-02-28T07:13:59;7.22;77.44
69084;SHT31;56185;48.526;9.044;2024-02-28T07:16:24;7.23;77.36
69084;SHT31;56185;48.526;9.044;2024-02-28T07:18:49;7.28;77.56
69084;SHT31;56185;48.526;9.044;2024-02-28T07:21:15;7.34;76.66
69084;SHT31;56185;48.526;9.044;2024-02-28T07:23:40;7.46;76.52
69084;SHT31;56185;48.526;9.044;2024-02-28T07:26:05;7.43;76.79
69084;SHT31;56185;48.526;9.044;2024-02-28T07:28:31;7.37;76.92
69084;SHT31;56185;48.526;9.044;2024-02-28T07:30:56;7.31;76.45
69084;SHT31;56185;48.526;9.044;2024-02-28T07:33:21;7.37;76.35
69084;SHT31;56185;48.526;9.044;2024-02-28T07:35:47;7.47;76.52
69084;SHT31;56185;48.526;9.044;2024-02-28T07:38:12;7.47;76.86
69084;SHT31;56185;48.526;9.044;2024-02-28T07:40:38;7.53;76.20
69084;SHT31;56185;48.526;9.044;2024-02-28T07:43:03;7.53;76.33
69084;SHT31;56185;48.526;9.044;2024-02-28T07:45:28;7.55;76.06
69084;SHT31;56185;48.526;9.044;2024-02-28T07:47:53;7.53;75.78
69084;SHT31;56185;48.526;9.044;2024-02-28T07:50:19;7.63;75.37
69084;SHT31;56185;48.526;9.044;2024-02-28T07:52:44;7.65;75.77
69084;SHT31;56185;48.526;9.044;2024-02-28T07:55:09;7.61;75.73
69084;SHT31;56185;48.526;9.044;2024-02-28T07:57:34;7.57;75.33
69084;SHT31;56185;48.526;9.044;2024-02-28T08:00:00;7.55;75.82
69084;SHT31;56185;48.526;9.044;2024-02-28T08:02:25;7.63;75.95
69084;SHT31;56185;48.526;9.044;2024-02-28T08:04:50;7.63;75.22
69084;SHT31;56185;48.526;9.044;2024-02-28T08:07:16;7.65;75.33
69084;SHT31;56185;48.526;9.044;2024-02-28T08:09:41;7.65;75.79
69084;SHT31;56185;48.526;9.044;2024-02-28T08:12:06;7.68;75.60
69084;SHT31;56185;48.526;9.044;2024-02-28T08:14:32;7.65;75.80
69084;SHT31;56185;48.526;9.044;2024-02-28T08:16:57;7.70;75.54
69084;SHT31;56185;48.526;9.044;2024-02-28T08:19:22;7.68;75.66
69084;SHT31;56185;48.526;9.044;2024-02-28T08:21:47;7.78;75.34
69084;SHT31;56185;48.526;9.044;2024-02-28T08:24:13;7.81;75.00
69084;SHT31;56185;48.526;9.044;2024-02-28T08:26:38;7.82;74.65
69084;SHT31;56185;48.526;9.044;2024-02-28T08:29:03;7.64;75.12
69084;SHT31;56185;48.526;9.044;2024-02-28T08:31:29;7.53;74.99
69084;SHT31;56185;48.526;9.044;2024-02-28T08:33:54;7.53;75.34
69084;SHT31;56185;48.526;9.044;2024-02-28T08:36:19;7.61;75.20
69084;SHT31;56185;48.526;9.044;2024-02-28T08:38:44;7.77;74.55
69084;SHT31;56185;48.526;9.044;2024-02-28T08:41:09;7.82;74.22
69084;SHT31;56185;48.526;9.044;2024-02-28T08:43:39;7.61;75.12
69084;SHT31;56185;48.526;9.044;2024-02-28T08:46:04;7.57;75.00
69084;SHT31;56185;48.526;9.044;2024-02-28T08:48:33;7.48;75.31
69084;SHT31;56185;48.526;9.044;2024-02-28T08:50:58;7.47;75.37
69084;SHT31;56185;48.526;9.044;2024-02-28T08:53:23;7.54;75.03
69084;SHT31;56185;48.526;9.044;2024-02-28T08:55:48;7.63;74.59
69084;SHT31;56185;48.526;9.044;2024-02-28T08:58:14;7.77;74.79
69084;SHT31;56185;48.526;9.044;2024-02-28T09:00:39;7.86;74.44
69084;SHT31;56185;48.526;9.044;2024-02-28T09:03:04;7.86;74.71
69084;SHT31;56185;48.526;9.044;2024-02-28T09:05:30;8.02;74.06
69084;SHT31;56185;48.526;9.044;2024-02-28T09:07:55;8.01;74.09
69084;SHT31;56185;48.526;9.044;2024-02-28T09:10:20;7.79;74.70
69084;SHT31;56185;48.526;9.044;2024-02-28T09:12:45;7.86;74.03
69084;SHT31;56185;48.526;9.044;2024-02-28T09:15:11;7.78;74.78
69084;SHT31;56185;48.526;9.044;2024-02-28T09:17:36;7.91;73.74
69084;SHT31;56185;48.526;9.044;2024-02-28T09:20:01;8.05;74.00
69084;SHT31;56185;48.526;9.044;2024-02-28T09:22:26;7.93;73.09
69084;SHT31;56185;48.526;9.044;2024-02-28T09:24:52;8.01;72.89
69084;SHT31;56185;48.526;9.044;2024-02-28T09:27:17;7.95;73.35
69084;SHT31;56185;48.526;9.044;2024-02-28T09:29:42;7.85;73.36
69084;SHT31;56185;48.526;9.044;2024-02-28T09:32:07;7.95;73.42
69084;SHT31;56185;48.526;9.044;2024-02-28T09:34:33;8.10;73.59
69084;SHT31;56185;48.526;9.044;2024-02-28T09:36:58;8.07;73.18
69084;SHT31;56185;48.526;9.044;2024-02-28T09:39:23;8.13;73.05
69084;SHT31;56185;48.526;9.044;2024-02-28T09:41:48;8.02;72.54
69084;SHT31;56185;48.526;9.044;2024-02-28T09:44:14;7.98;73.77
69084;SHT31;56185;48.526;9.044;2024-02-28T09:46:44;7.91;73.56
69084;SHT31;56185;48.526;9.044;2024-02-28T09:49:10;7.93;73.69
69084;SHT31;56185;48.526;9.044;2024-02-28T09:51:36;7.98;73.32
69084;SHT31;56185;48.526;9.044;2024-02-28T09:54:05;8.10;73.13
69084;SHT31;56185;48.526;9.044;2024-02-28T09:56:33;8.10;73.03
69084;SHT31;56185;48.526;9.044;2024-02-28T09:58:59;8.01;73.39
69084;SHT31;56185;48.526;9.044;2024-02-28T10:01:26;8.22;72.92
69084;SHT31;56185;48.526;9.044;2024-02-28T10:03:52;8.25;72.99
69084;SHT31;56185;48.526;9.044;2024-02-28T10:06:17;8.03;73.24
69084;SHT31;56185;48.526;9.044;2024-02-28T10:08:42;8.09;73.70
69084;SHT31;56185;48.526;9.044;2024-02-28T10:11:07;8.12;73.17
69084;SHT31;56185;48.526;9.044;2024-02-28T10:13:33;8.21;73.16
69084;SHT31;56185;48.526;9.044;2024-02-28T10:15:58;8.28;72.18
69084;SHT31;56185;48.526;9.044;2024-02-28T10:18:25;8.28;72.02
69084;SHT31;56185;48.526;9.044;2024-02-28T10:20:51;8.25;72.45
69084;SHT31;56185;48.526;9.044;2024-02-28T10:23:16;8.23;71.97
69084;SHT31;56185;48.526;9.044;2024-02-28T10:25:43;8.25;72.74
69084;SHT31;56185;48.526;9.044;2024-02-28T10:28:09;8.25;72.45
69084;SHT31;56185;48.526;9.044;2024-02-28T10:30:39;8.29;72.62
69084;SHT31;56185;48.526;9.044;2024-02-28T10:33:05;8.43;72.18
69084;SHT31;56185;48.526;9.044;2024-02-28T10:35:34;8.40;72.13
69084;SHT31;56185;48.526;9.044;2024-02-28T10:37:59;8.43;71.91
69084;SHT31;56185;48.526;9.044;2024-02-28T10:40:25;8.47;72.70
69084;SHT31;56185;48.526;9.044;2024-02-28T10:42:50;8.53;72.10
69084;SHT31;56185;48.526;9.044;2024-02-28T10:45:17;8.56;72.06
69084;SHT31;56185;48.526;9.044;2024-02-28T10:47:42;8.57;71.01
69084;SHT31;56185;48.526;9.044;2024-02-28T10:50:08;8.57;71.83
69084;SHT31;56185;48.526;9.044;2024-02-28T10:52:34;8.56;71.22
69084;SHT31;56185;48.526;9.044;2024-02-28T10:55:02;8.60;72.14
69084;SHT31;56185;48.526;9.044;2024-02-28T10:57:29;8.65;71.60
69084;SHT31;56185;48.526;9.044;2024-02-28T10:59:56;8.60;71.42
69084;SHT31;56185;48.526;9.044;2024-02-28T11:02:23;8.57;71.18
69084;SHT31;56185;48.526;9.044;2024-02-28T11:04:51;8.57;70.98
69084;SHT31;56185;48.526;9.044;2024-02-28T11:07:20;8.54;70.78
69084;SHT31;56185;48.526;9.044;2024-02-28T11:09:45;8.47;71.33
69084;SHT31;56185;48.526;9.044;2024-02-28T11:12:26;8.59;71.01
69084;SHT31;56185;48.526;9.044;2024-02-28T11:14:59;8.59;71.15
69084;SHT31;56185;48.526;9.044;2024-02-28T11:17:30;8.60;71.77
69084;SHT31;56185;48.526;9.044;2024-02-28T11:19:56;8.61;71.76
69084;SHT31;56185;48.526;9.044;2024-02-28T11:22:21;8.68;70.72
69084;SHT31;56185;48.526;9.044;2024-02-28T11:24:47;8.70;70.81
69084;SHT31;56185;48.526;9.044;2024-02-28T11:27:13;8.71;70.64
69084;SHT31;56185;48.526;9.044;2024-02-28T11:29:38;8.74;70.40
69084;SHT31;56185;48.526;9.044;2024-02-28T11:32:03;8.74;70.44
69084;SHT31;56185;48.526;9.044;2024-02-28T11:34:29;8.68;71.23
69084;SHT31;56185;48.526;9.044;2024-02-28T11:36:54;8.49;70.84
69084;SHT31;56185;48.526;9.044;2024-02-28T11:39:19;8.47;71.20
69084;SHT31;56185;48.526;9.044;2024-02-28T11:41:44;8.64;70.57
69084;SHT31;56185;48.526;9.044;2024-02-28T11:44:10;8.61;71.16
69084;SHT31;56185;48.526;9.044;2024-02-28T11:46:35;8.59;71.39
69084;SHT31;56185;48.526;9.044;2024-02-28T11:49:01;8.67;70.53
69084;SHT31;56185;48.526;9.044;2024-02-28T11:51:26;8.73;70.59
69084;SHT31;56185;48.526;9.044;2024-02-28T11:53:51;8.65;71.17
69084;SHT31;56185;48.526;9.044;2024-02-28T11:56:17;8.65;70.69
69084;SHT31;56185;48.526;9.044;2024-02-28T11:58:52;8.78;70.95
69084;SHT31;56185;48.526;9.044;2024-02-28T12:01:17;8.70;71.38
69084;SHT31;56185;48.526;9.044;2024-02-28T12:03:46;8.77;70.83
69084;SHT31;56185;48.526;9.044;2024-02-28T12:06:12;8.75;70.22
69084;SHT31;56185;48.526;9.044;2024-02-28T12:08:37;8.60;70.19
69084;SHT31;56185;48.526;9.044;2024-02-28T12:11:06;8.73;70.50
69084;SHT31;56185;48.526;9.044;2024-02-28T12:13:32;8.77;70.71
69084;SHT31;56185;48.526;9.044;2024-02-28T12:15:57;8.82;70.67
69084;SHT31;56185;48.526;9.044;2024-02-28T12:18:22;8.65;70.04
69084;SHT31;56185;48.526;9.044;2024-02-28T12:20:48;8.75;70.56
69084;SHT31;56185;48.526;9.044;2024-02-28T12:23:13;8.43;70.63
69084;SHT31;56185;48.526;9.044;2024-02-28T12:25:38;8.64;69.99
69084;SHT31;56185;48.526;9.044;2024-02-28T12:28:04;8.61;70.92
69084;SHT31;56185;48.526;9.044;2024-02-28T12:30:29;8.82;69.86
69084;SHT31;56185;48.526;9.044;2024-02-28T12:32:54;8.64;70.53
69084;SHT31;56185;48.526;9.044;2024-02-28T12:35:19;8.75;70.15
69084;SHT31;56185;48.526;9.044;2024-02-28T12:37:45;8.73;70.69
69084;SHT31;56185;48.526;9.044;2024-02-28T12:40:10;8.80;70.25
69084;SHT31;56185;48.526;9.044;2024-02-28T12:42:35;8.74;70.36
69084;SHT31;56185;48.526;9.044;2024-02-28T12:45:00;8.74;70.24
69084;SHT31;56185;48.526;9.044;2024-02-28T12:47:26;8.74;70.53
69084;SHT31;56185;48.526;9.044;2024-02-28T12:49:51;8.71;70.84
69084;SHT31;56185;48.526;9.044;2024-02-28T12:52:18;8.77;70.72
69084;SHT31;56185;48.526;9.044;2024-02-28T12:54:44;8.70;70.40
69084;SHT31;56185;48.526;9.044;2024-02-28T12:57:09;8.75;70.24
69084;SHT31;56185;48.526;9.044;2024-02-28T12:59:34;8.80;70.04
69084;SHT31;56185;48.526;9.044;2024-02-28T13:01:59;8.87;69.60
69084;SHT31;56185;48.526;9.044;2024-02-28T13:04:25;8.67;70.27
69084;SHT31;56185;48.526;9.044;2024-02-28T13:06:50;8.59;70.18
69084;SHT31;56185;48.526;9.044;2024-02-28T13:09:15;8.73;70.78
69084;SHT31;56185;48.526;9.044;2024-02-28T13:11:41;8.75;70.17
69084;SHT31;56185;48.526;9.044;2024-02-28T13:14:06;8.68;70.15
69084;SHT31;56185;48.526;9.044;2024-02-28T13:16:31;8.82;70.46
69084;SHT31;56185;48.526;9.044;2024-02-28T13:18:59;8.89;70.24
69084;SHT31;56185;48.526;9.044;2024-02-28T13:21:25;8.94;69.92
69084;SHT31;56185;48.526;9.044;2024-02-28T13:23:50;8.95;69.29
69084;SHT31;56185;48.526;9.044;2024-02-28T13:26:33;8.98;69.18
69084;SHT31;56185;48.526;9.044;2024-02-28T13:29:19;8.87;68.78
69084;SHT31;56185;48.526;9.044;2024-02-28T13:31:45;8.68;69.76
69084;SHT31;56185;48.526;9.044;2024-02-28T13:34:10;8.82;69.51
69084;SHT31;56185;48.526;9.044;2024-02-28T13:36:44;8.88;69.62
69084;SHT31;56185;48.526;9.044;2024-02-28T13:39:10;8.97;69.09
69084;SHT31;56185;48.526;9.044;2024-02-28T13:41:35;9.02;69.50
69084;SHT31;56185;48.526;9.044;2024-02-28T13:44:00;9.08;69.52
69084;SHT31;56185;48.526;9.044;2024-02-28T13:46:25;9.00;68.76
69084;SHT31;56185;48.526;9.044;2024-02-28T13:48:54;8.84;68.53
69084;SHT31;56185;48.526;9.044;2024-02-28T13:51:20;8.84;68.85
69084;SHT31;56185;48.526;9.044;2024-02-28T13:53:48;8.91;68.45
69084;SHT31;56185;48.526;9.044;2024-02-28T13:56:22;8.80;68.32
69084;SHT31;56185;48.526;9.044;2024-02-28T13:58:48;8.89;68.68
69084;SHT31;56185;48.526;9.044;2024-02-28T14:01:13;8.88;69.62
69084;SHT31;56185;48.526;9.044;2024-02-28T14:03:38;8.88;69.37
69084;SHT31;56185;48.526;9.044;2024-02-28T14:06:04;8.92;69.19
69084;SHT31;56185;48.526;9.044;2024-02-28T14:08:30;9.00;69.42
69084;SHT31;56185;48.526;9.044;2024-02-28T14:10:55;8.87;68.67
69084;SHT31;56185;48.526;9.044;2024-02-28T14:13:20;8.94;68.52
69084;SHT31;56185;48.526;9.044;2024-02-28T14:15:46;9.00;68.85
69084;SHT31;56185;48.526;9.044;2024-02-28T14:18:12;9.00;67.86
69084;SHT31;56185;48.526;9.044;2024-02-28T14:20:45;8.98;68.76
69084;SHT31;56185;48.526;9.044;2024-02-28T14:23:10;8.98;68.65
69084;SHT31;56185;48.526;9.044;2024-02-28T14:25:35;8.94;68.84
69084;SHT31;56185;48.526;9.044;2024-02-28T14:28:01;9.00;68.15
69084;SHT31;56185;48.526;9.044;2024-02-28T14:30:26;9.01;68.37
69084;SHT31;56185;48.526;9.044;2024-02-28T14:32:53;8.95;68.65
69084;SHT31;56185;48.526;9.044;2024-02-28T14:35:18;9.10;69.34
69084;SHT31;56185;48.526;9.044;2024-02-28T14:37:44;9.07;68.68
69084;SHT31;56185;48.526;9.044;2024-02-28T14:40:17;9.05;68.69
69084;SHT31;56185;48.526;9.044;2024-02-28T14:42:45;9.07;69.02
69084;SHT31;56185;48.526;9.044;2024-02-28T14:45:12;9.07;68.88
69084;SHT31;56185;48.526;9.044;2024-02-28T14:47:38;9.02;69.23
69084;SHT31;56185;48.526;9.044;2024-02-28T14:50:04;8.92;70.50
69084;SHT31;56185;48.526;9.044;2024-02-28T14:52:30;8.92;70.31
69084;SHT31;56185;48.526;9.044;2024-02-28T14:54:55;8.95;70.32
69084;SHT31;56185;48.526;9.044;2024-02-28T14:57:20;8.84;70.12
69084;SHT31;56185;48.526;9.044;2024-02-28T14:59:45;8.88;70.71
69084;SHT31;56185;48.526;9.044;2024-02-28T15:02:11;8.85;70.29
69084;SHT31;56185;48.526;9.044;2024-02-28T15:04:37;8.78;70.88
69084;SHT31;56185;48.526;9.044;2024-02-28T15:07:03;8.89;70.05
69084;SHT31;56185;48.526;9.044;2024-02-28T15:09:29;8.88;70.18
69084;SHT31;56185;48.526;9.044;2024-02-28T15:11:55;8.91;70.55
69084;SHT31;56185;48.526;9.044;2024-02-28T15:14:23;8.89;70.35
69084;SHT31;56185;48.526;9.044;2024-02-28T15:16:51;8.87;70.42
69084;SHT31;56185;48.526;9.044;2024-02-28T15:19:19;8.81;70.26
69084;SHT31;56185;48.526;9.044;2024-02-28T15:21:49;8.84;70.49
69084;SHT31;56185;48.526;9.044;2024-02-28T15:24:20;8.78;71.07
69084;SHT31;56185;48.526;9.044;2024-02-28T15:26:46;8.80;70.76
69084;SHT31;56185;48.526;9.044;2024-02-28T15:29:14;8.74;70.35
69084;SHT31;56185;48.526;9.044;2024-02-28T15:31:40;8.68;70.47
69084;SHT31;56185;48.526;9.044;2024-02-28T15:34:06;8.63;70.78
69084;SHT31;56185;48.526;9.044;2024-02-28T15:36:38;8.63;70.63